createdAt,value
2017-10-25T00:00:34.627Z,5.53
2017-10-25T00:03:02.096Z,5.40
2017-10-25T00:05:29.539Z,3.80
2017-10-25T00:07:57.108Z,5.10
2017-10-25T00:10:24.563Z,4.47
2017-10-25T00:12:52.030Z,4.80
2017-10-25T00:15:19.482Z,4.97
2017-10-25T00:17:46.944Z,5.73
2017-10-25T00:20:15.167Z,5.33
2017-10-25T00:22:42.634Z,4.73
2017-10-25T00:25:10.106Z,4.67
2017-10-25T00:27:37.665Z,5.07
2017-10-25T00:30:05.982Z,4.23
2017-10-25T00:32:34.202Z,4.43
2017-10-25T00:35:01.663Z,5.77
2017-10-25T00:37:29.119Z,4.60
2017-10-25T00:39:56.694Z,4.80
2017-10-25T00:42:24.146Z,4.57
2017-10-25T00:44:51.602Z,4.13
2017-10-25T00:47:19.064Z,4.40
2017-10-25T00:49:46.526Z,3.50
2017-10-25T00:52:13.983Z,3.60
2017-10-25T00:54:41.459Z,3.90
2017-10-25T00:57:09.678Z,2.53
2017-10-25T00:59:37.140Z,3.07
2017-10-25T01:02:04.590Z,2.67
2017-10-25T01:04:32.079Z,2.50
2017-10-25T01:06:59.531Z,2.10
2017-10-25T01:09:27.004Z,2.20
2017-10-25T01:11:54.466Z,2.40
2017-10-25T01:14:21.915Z,2.07
2017-10-25T01:16:49.378Z,1.80
2017-10-25T01:19:16.830Z,2.50
2017-10-25T01:21:44.386Z,2.00
2017-10-25T01:24:11.833Z,2.03
2017-10-25T01:26:39.298Z,1.90
2017-10-25T01:29:06.850Z,1.90
2017-10-25T01:31:34.314Z,1.77
2017-10-25T01:34:01.765Z,1.40
2017-10-25T01:36:29.229Z,1.63
2017-10-25T01:38:56.687Z,2.10
2017-10-25T01:41:24.141Z,2.20
2017-10-25T01:43:51.604Z,1.80
2017-10-25T01:46:20.574Z,1.67
2017-10-25T01:48:48.024Z,1.90
2017-10-25T01:51:15.486Z,1.83
2017-10-25T01:53:42.943Z,2.20
2017-10-25T01:56:10.428Z,1.80
2017-10-25T01:58:37.884Z,1.83
2017-10-25T02:01:05.345Z,1.70
2017-10-25T02:03:32.879Z,2.40
2017-10-25T02:06:00.339Z,1.90
2017-10-25T02:08:27.791Z,1.73
2017-10-25T02:10:55.243Z,1.60
2017-10-25T02:13:22.705Z,3.07
2017-10-25T02:15:50.154Z,2.17
2017-10-25T02:18:17.623Z,2.23
2017-10-25T02:20:45.078Z,1.93
2017-10-25T02:23:12.543Z,2.40
2017-10-25T02:25:40.009Z,3.70
2017-10-25T02:28:07.458Z,4.70
2017-10-25T02:30:34.917Z,4.00
2017-10-25T02:33:02.372Z,3.80
2017-10-25T02:35:31.365Z,4.10
2017-10-25T02:37:58.840Z,3.60
2017-10-25T02:40:27.059Z,3.20
2017-10-25T02:42:54.544Z,3.50
2017-10-25T02:45:21.975Z,3.90
2017-10-25T02:47:49.433Z,3.60
2017-10-25T02:50:16.886Z,4.17
2017-10-25T02:52:44.359Z,3.73
2017-10-25T02:55:11.811Z,3.60
2017-10-25T02:57:39.282Z,3.00
2017-10-25T03:00:06.736Z,2.00
2017-10-25T03:02:34.191Z,2.17
2017-10-25T03:05:01.653Z,2.20
2017-10-25T03:07:29.106Z,1.97
2017-10-25T03:09:56.671Z,1.70
2017-10-25T03:12:24.135Z,1.90
2017-10-25T03:14:51.594Z,1.73
2017-10-25T03:17:19.141Z,2.00
2017-10-25T03:19:46.607Z,1.70
2017-10-25T03:22:14.063Z,2.03
2017-10-25T03:24:41.530Z,1.93
2017-10-25T03:27:08.984Z,2.17
2017-10-25T03:29:36.442Z,4.03
2017-10-25T03:32:04.674Z,3.53
2017-10-25T03:34:32.135Z,2.30
2017-10-25T03:36:59.596Z,2.40
2017-10-25T03:39:27.059Z,2.70
2017-10-25T03:41:54.535Z,2.80
2017-10-25T03:44:23.510Z,1.87
2017-10-25T03:46:50.971Z,2.27
2017-10-25T03:49:18.442Z,1.50
2017-10-25T03:51:45.895Z,1.63
2017-10-25T03:54:13.353Z,2.03
2017-10-25T03:56:40.820Z,1.63
2017-10-25T03:59:08.261Z,1.33
2017-10-25T04:01:35.727Z,1.60
2017-10-25T04:04:03.182Z,1.50
2017-10-25T04:06:30.658Z,1.90
2017-10-25T04:08:58.111Z,1.57
2017-10-25T04:11:25.661Z,1.87
2017-10-25T04:13:53.110Z,1.70
2017-10-25T04:16:20.578Z,1.67
2017-10-25T04:18:48.028Z,1.20
2017-10-25T04:21:15.502Z,1.67
2017-10-25T04:23:43.726Z,1.37
2017-10-25T04:26:11.190Z,1.60
2017-10-25T04:28:38.669Z,2.30
2017-10-25T04:31:06.130Z,2.27
2017-10-25T04:33:34.350Z,2.40
2017-10-25T04:36:01.860Z,2.37
2017-10-25T04:38:29.329Z,2.10
2017-10-25T04:40:56.774Z,3.03
2017-10-25T04:43:24.248Z,3.20
2017-10-25T04:45:51.698Z,2.87
2017-10-25T04:48:19.157Z,2.90
2017-10-25T04:50:47.417Z,3.67
2017-10-25T04:53:14.887Z,4.57
2017-10-25T04:55:42.343Z,4.03
2017-10-25T04:58:09.802Z,4.00
2017-10-25T05:00:37.254Z,6.13
2017-10-25T05:03:04.722Z,4.93
2017-10-25T05:05:32.950Z,5.43
2017-10-25T05:08:00.418Z,4.73
2017-10-25T05:10:27.871Z,6.33
2017-10-25T05:12:55.339Z,4.97
2017-10-25T05:15:22.792Z,5.83
2017-10-25T05:17:50.358Z,4.70
2017-10-25T05:20:17.814Z,5.50
2017-10-25T05:22:45.282Z,5.40
2017-10-25T05:25:12.836Z,2.00
2017-10-25T05:27:40.295Z,3.10
2017-10-25T05:30:07.750Z,3.87
2017-10-25T05:32:35.209Z,3.50
2017-10-25T05:35:02.675Z,2.90
2017-10-25T05:37:30.122Z,3.70
2017-10-25T05:39:57.586Z,4.20
2017-10-25T05:42:25.951Z,3.50
2017-10-25T05:44:53.413Z,3.47
2017-10-25T05:47:20.870Z,2.77
2017-10-25T05:49:48.328Z,3.33
2017-10-25T05:52:15.778Z,3.57
2017-10-25T05:54:43.266Z,3.60
2017-10-25T05:57:11.507Z,4.60
2017-10-25T05:59:38.969Z,4.87
2017-10-25T06:02:06.426Z,5.47
2017-10-25T06:04:33.883Z,4.60
2017-10-25T06:07:01.343Z,4.50
2017-10-25T06:09:28.791Z,4.03
2017-10-25T06:11:56.358Z,4.37
2017-10-25T06:14:23.810Z,4.90
2017-10-25T06:16:51.278Z,3.73
2017-10-25T06:19:18.734Z,3.70
2017-10-25T06:21:46.201Z,3.43
2017-10-25T06:24:14.418Z,4.00
2017-10-25T06:26:41.915Z,4.00
2017-10-25T06:29:09.475Z,3.20
2017-10-25T06:31:36.943Z,3.97
2017-10-25T06:34:04.493Z,4.07
2017-10-25T06:36:31.963Z,4.03
2017-10-25T06:38:59.415Z,4.00
2017-10-25T06:41:26.953Z,3.33
2017-10-25T06:43:54.516Z,3.20
2017-10-25T06:46:21.979Z,2.63
2017-10-25T06:48:49.431Z,3.70
2017-10-25T06:51:16.996Z,4.67
2017-10-25T06:53:45.211Z,4.40
2017-10-25T06:56:12.693Z,5.20
2017-10-25T06:58:40.155Z,5.90
2017-10-25T07:01:07.619Z,5.33
2017-10-25T07:03:35.087Z,5.83
2017-10-25T07:06:02.539Z,5.43
2017-10-25T07:08:30.003Z,4.50
2017-10-25T07:10:57.458Z,5.00
2017-10-25T07:13:24.923Z,4.60
2017-10-25T07:15:52.369Z,4.40
2017-10-25T07:18:19.831Z,4.30
2017-10-25T07:20:47.283Z,4.10
2017-10-25T07:23:14.755Z,4.33
2017-10-25T07:25:42.206Z,4.40
2017-10-25T07:28:09.666Z,3.90
2017-10-25T07:30:37.213Z,5.43
2017-10-25T07:33:04.696Z,4.70
2017-10-25T07:35:32.927Z,3.83
2017-10-25T07:38:00.386Z,5.10
2017-10-25T07:40:27.841Z,5.30
2017-10-25T07:42:55.322Z,5.33
2017-10-25T07:45:22.786Z,5.07
2017-10-25T07:47:50.238Z,4.60
2017-10-25T07:50:17.707Z,4.90
2017-10-25T07:52:45.155Z,6.00
2017-10-25T07:55:12.623Z,5.03
2017-10-25T07:57:40.087Z,6.43
2017-10-25T08:00:07.538Z,5.47
2017-10-25T08:02:35.767Z,3.27
2017-10-25T08:05:03.230Z,3.40
2017-10-25T08:07:30.686Z,4.20
2017-10-25T08:09:58.163Z,5.13
2017-10-25T08:12:25.615Z,4.90
2017-10-25T08:14:53.085Z,5.33
2017-10-25T08:17:20.538Z,5.50
2017-10-25T08:19:48.016Z,3.57
2017-10-25T08:22:16.232Z,3.90
2017-10-25T08:24:43.686Z,3.43
2017-10-25T08:27:11.145Z,3.73
2017-10-25T08:29:38.604Z,4.10
2017-10-25T08:32:06.128Z,3.97
2017-10-25T08:34:34.343Z,3.73
2017-10-25T08:37:01.832Z,5.60
2017-10-25T08:39:29.286Z,4.50
2017-10-25T08:41:56.842Z,4.27
2017-10-25T08:44:24.309Z,3.90
2017-10-25T08:46:51.773Z,3.47
2017-10-25T08:49:20.009Z,3.77
2017-10-25T08:51:47.473Z,3.60
2017-10-25T08:54:14.922Z,2.83
2017-10-25T08:56:42.389Z,3.93
2017-10-25T08:59:09.847Z,4.10
2017-10-25T09:01:37.304Z,3.70
2017-10-25T09:04:04.763Z,2.80
2017-10-25T09:06:32.206Z,2.23
2017-10-25T09:08:59.661Z,2.60
2017-10-25T09:11:27.120Z,2.57
2017-10-25T09:13:54.573Z,2.43
2017-10-25T09:16:22.018Z,2.23
2017-10-25T09:18:49.477Z,2.57
2017-10-25T09:21:16.929Z,2.03
2017-10-25T09:23:44.395Z,2.20
2017-10-25T09:26:11.856Z,1.67
2017-10-25T09:28:39.321Z,1.80
2017-10-25T09:31:06.775Z,1.60
2017-10-25T09:33:34.228Z,2.33
2017-10-25T09:36:01.693Z,2.60
2017-10-25T09:38:29.148Z,2.67
2017-10-25T09:40:56.598Z,1.90
2017-10-25T09:43:24.059Z,1.90
2017-10-25T09:45:51.505Z,1.93
2017-10-25T09:48:18.967Z,2.43
2017-10-25T09:50:46.442Z,1.80
2017-10-25T09:53:13.921Z,1.73
2017-10-25T09:55:42.167Z,1.60
2017-10-25T09:58:09.639Z,1.80
2017-10-25T10:00:37.110Z,2.10
2017-10-25T10:03:04.568Z,1.80
2017-10-25T10:05:32.026Z,1.40
2017-10-25T10:08:00.259Z,2.37
2017-10-25T10:10:27.717Z,2.07
2017-10-25T10:12:55.198Z,1.80
2017-10-25T10:15:22.654Z,1.73
2017-10-25T10:17:50.114Z,2.43
2017-10-25T10:20:17.575Z,2.23
2017-10-25T10:22:45.030Z,1.73
2017-10-25T10:25:12.494Z,2.77
2017-10-25T10:27:39.950Z,2.63
2017-10-25T10:30:07.490Z,2.03
2017-10-25T10:32:34.949Z,1.50
2017-10-25T10:35:02.406Z,1.70
2017-10-25T10:37:29.854Z,1.67
2017-10-25T10:39:57.313Z,1.57
2017-10-25T10:42:24.762Z,2.03
2017-10-25T10:44:52.227Z,1.90
2017-10-25T10:47:19.674Z,1.50
2017-10-25T10:49:47.131Z,2.57
2017-10-25T10:52:14.591Z,1.70
2017-10-25T10:54:42.057Z,2.17
2017-10-25T10:57:09.619Z,1.93
2017-10-25T10:59:37.072Z,1.80
2017-10-25T11:02:04.534Z,1.90
2017-10-25T11:04:31.998Z,1.40
2017-10-25T11:06:59.454Z,1.80
2017-10-25T11:09:26.914Z,1.43
2017-10-25T11:11:54.458Z,1.80
2017-10-25T11:14:22.049Z,2.03
2017-10-25T11:16:49.482Z,1.83
2017-10-25T11:19:17.035Z,1.30
2017-10-25T11:21:44.494Z,0.70
2017-10-25T11:24:12.049Z,0.70
2017-10-25T11:26:39.509Z,0.90
2017-10-25T11:29:06.968Z,0.80
2017-10-25T11:31:34.438Z,1.17
2017-10-25T11:34:01.887Z,1.83
2017-10-25T11:36:29.346Z,1.17
2017-10-25T11:38:56.797Z,1.10
2017-10-25T11:41:24.274Z,1.20
2017-10-25T11:43:52.502Z,1.40
2017-10-25T11:46:19.953Z,1.10
2017-10-25T11:48:47.414Z,1.43
2017-10-25T11:51:14.875Z,1.40
2017-10-25T11:53:42.351Z,1.40
2017-10-25T11:56:09.910Z,1.20
2017-10-25T11:58:37.471Z,1.60
2017-10-25T12:01:04.926Z,1.17
2017-10-25T12:03:32.395Z,1.33
2017-10-25T12:05:59.858Z,1.30
2017-10-25T12:08:28.078Z,1.20
2017-10-25T12:10:55.569Z,1.10
2017-10-25T12:13:23.037Z,1.40
2017-10-25T12:15:50.496Z,1.77
2017-10-25T12:18:17.961Z,1.60
2017-10-25T12:20:45.506Z,1.33
2017-10-25T12:23:13.070Z,1.67
2017-10-25T12:25:40.526Z,1.53
2017-10-25T12:28:08.088Z,1.40
2017-10-25T12:30:35.630Z,1.70
2017-10-25T12:33:03.095Z,1.47
2017-10-25T12:35:30.554Z,1.30
2017-10-25T12:37:58.034Z,1.50
2017-10-25T12:40:26.279Z,1.47
2017-10-25T12:42:53.838Z,1.40
2017-10-25T12:45:21.297Z,1.77
2017-10-25T12:47:48.758Z,1.47
2017-10-25T12:50:16.311Z,1.53
2017-10-25T12:52:43.775Z,2.10
2017-10-25T12:55:11.434Z,1.83
2017-10-25T12:57:38.890Z,1.60
2017-10-25T13:00:06.351Z,2.23
2017-10-25T13:02:33.805Z,1.50
2017-10-25T13:05:01.268Z,1.90
2017-10-25T13:07:28.718Z,1.40
2017-10-25T13:09:56.268Z,1.80
2017-10-25T13:12:26.427Z,1.30
2017-10-25T13:15:00.610Z,1.60
2017-10-25T13:17:28.455Z,1.67
2017-10-25T13:19:56.015Z,1.53
2017-10-25T13:22:23.486Z,1.47
2017-10-25T13:24:50.953Z,2.23
2017-10-25T13:27:18.503Z,1.30
2017-10-25T13:29:45.961Z,1.87
2017-10-25T13:32:13.418Z,1.33
2017-10-25T13:34:40.874Z,1.40
2017-10-25T13:37:08.360Z,1.30
2017-10-25T13:39:36.579Z,1.33
2017-10-25T13:42:04.033Z,1.50
2017-10-25T13:44:31.498Z,1.30
2017-10-25T13:46:58.957Z,1.83
2017-10-25T13:49:26.414Z,1.40
2017-10-25T13:51:53.986Z,1.67
2017-10-25T13:54:21.450Z,1.20
2017-10-25T13:56:48.915Z,1.20
2017-10-25T13:59:16.366Z,1.50
2017-10-25T14:01:43.830Z,1.60
2017-10-25T14:04:12.796Z,1.70
2017-10-25T14:06:40.367Z,1.97
2017-10-25T14:09:07.835Z,1.30
2017-10-25T14:11:35.300Z,1.43
2017-10-25T14:14:03.523Z,1.63
2017-10-25T14:16:30.993Z,1.30
2017-10-25T14:18:58.476Z,1.70
2017-10-25T14:21:25.948Z,1.50
2017-10-25T14:23:53.490Z,2.00
2017-10-25T14:26:33.026Z,1.43
2017-10-25T14:29:00.497Z,1.50
2017-10-25T14:31:27.949Z,1.30
2017-10-25T14:33:55.407Z,1.57
2017-10-25T14:36:22.954Z,1.30
2017-10-25T14:38:50.406Z,1.20
2017-10-25T14:41:17.871Z,1.30
2017-10-25T14:43:45.423Z,1.30
2017-10-25T14:46:12.899Z,1.27
2017-10-25T14:48:40.354Z,1.10
2017-10-25T14:51:07.815Z,1.10
2017-10-25T14:53:35.272Z,1.10
2017-10-25T14:56:02.750Z,1.33
2017-10-25T14:58:30.199Z,1.37
2017-10-25T15:00:58.423Z,1.73
2017-10-25T15:03:26.097Z,2.40
2017-10-25T15:05:53.554Z,1.53
2017-10-25T15:08:21.084Z,1.50
2017-10-25T15:10:48.540Z,1.50
2017-10-25T15:13:16.140Z,1.40
2017-10-25T15:15:43.702Z,1.30
2017-10-25T15:18:11.165Z,2.03
2017-10-25T15:20:38.619Z,1.40
2017-10-25T15:23:06.083Z,1.50
2017-10-25T15:25:34.317Z,1.30
2017-10-25T15:28:01.787Z,1.60
2017-10-25T15:30:29.242Z,1.67
2017-10-25T15:32:56.706Z,1.60
2017-10-25T15:35:24.163Z,1.60
2017-10-25T15:37:51.625Z,1.63
2017-10-25T15:40:19.183Z,1.70
2017-10-25T15:42:46.643Z,2.07
2017-10-25T15:45:14.198Z,1.70
2017-10-25T15:47:41.662Z,1.43
2017-10-25T15:50:09.215Z,1.60
2017-10-25T15:52:36.762Z,1.80
2017-10-25T15:55:04.220Z,1.67
2017-10-25T15:57:31.699Z,1.50
2017-10-25T15:59:59.160Z,1.40
2017-10-25T16:02:27.373Z,1.63
2017-10-25T16:04:54.844Z,2.40
2017-10-25T16:07:22.287Z,3.93
2017-10-25T16:09:49.790Z,1.60
2017-10-25T16:12:17.259Z,1.93
2017-10-25T16:14:44.714Z,2.10
2017-10-25T16:17:12.172Z,2.00
2017-10-25T16:19:39.630Z,2.87
2017-10-25T16:22:07.086Z,3.60
2017-10-25T16:24:34.547Z,4.27
2017-10-25T16:27:02.805Z,3.53
2017-10-25T16:29:30.263Z,4.00
2017-10-25T16:31:57.722Z,3.30
2017-10-25T16:34:25.277Z,4.10
2017-10-25T16:36:52.739Z,3.57
2017-10-25T16:39:20.295Z,4.20
2017-10-25T16:41:47.857Z,4.10
2017-10-25T16:44:15.322Z,4.23
2017-10-25T16:46:43.034Z,4.43
2017-10-25T16:49:10.523Z,4.53
2017-10-25T16:51:37.982Z,4.97
2017-10-25T16:54:05.434Z,5.80
2017-10-25T16:56:32.886Z,5.20
2017-10-25T16:59:00.347Z,5.57
2017-10-25T17:01:27.793Z,6.10
2017-10-25T17:03:55.252Z,5.93
2017-10-25T17:06:22.706Z,6.80
2017-10-25T17:08:50.164Z,6.20
2017-10-25T17:11:17.735Z,6.03
2017-10-25T17:13:45.216Z,6.60
2017-10-25T17:16:12.763Z,7.30
2017-10-25T17:18:40.217Z,7.03
2017-10-25T17:21:07.735Z,6.63
2017-10-25T17:23:35.190Z,6.70
2017-10-25T17:26:02.649Z,6.10
2017-10-25T17:28:30.110Z,6.47
2017-10-25T17:30:57.578Z,7.60
2017-10-25T17:33:25.025Z,6.17
2017-10-25T17:35:52.486Z,5.80
2017-10-25T17:38:19.942Z,6.50
2017-10-25T17:40:47.418Z,7.20
2017-10-25T17:43:14.875Z,7.80
2017-10-25T17:45:42.430Z,7.90
2017-10-25T17:48:09.991Z,6.27
2017-10-25T17:50:37.450Z,7.70
2017-10-25T17:53:05.014Z,7.87
2017-10-25T17:55:32.499Z,6.77
2017-10-25T17:57:59.932Z,5.60
2017-10-25T18:00:27.394Z,5.13
2017-10-25T18:02:54.938Z,6.90
2017-10-25T18:05:22.498Z,6.47
2017-10-25T18:07:49.946Z,5.90
2017-10-25T18:10:17.397Z,6.50
2017-10-25T18:12:44.861Z,6.30
2017-10-25T18:15:12.316Z,5.70
2017-10-25T18:17:39.778Z,6.13
2017-10-25T18:20:07.236Z,5.47
2017-10-25T18:22:34.692Z,4.37
2017-10-25T18:25:02.158Z,4.83
2017-10-25T18:27:31.755Z,4.40
2017-10-25T18:29:59.220Z,3.43
2017-10-25T18:32:26.674Z,3.40
2017-10-25T18:34:54.134Z,4.47
2017-10-25T18:37:22.364Z,3.33
2017-10-25T18:39:49.823Z,3.60
2017-10-25T18:42:17.293Z,3.57
2017-10-25T18:44:44.750Z,4.50
2017-10-25T18:47:12.220Z,4.20
2017-10-25T18:49:39.674Z,5.23
2017-10-25T18:52:07.134Z,5.10
2017-10-25T18:54:34.590Z,5.93
2017-10-25T18:57:02.046Z,5.17
2017-10-25T18:59:29.510Z,5.13
2017-10-25T19:01:56.986Z,4.63
2017-10-25T19:04:24.439Z,5.23
2017-10-25T19:06:51.978Z,4.60
2017-10-25T19:09:19.490Z,5.63
2017-10-25T19:11:47.006Z,6.10
2017-10-25T19:14:14.462Z,4.67
2017-10-25T19:16:42.682Z,5.80
2017-10-25T19:19:10.150Z,4.30
2017-10-25T19:21:37.609Z,4.87
2017-10-25T19:24:05.075Z,4.73
2017-10-25T19:26:32.523Z,4.40
2017-10-25T19:28:59.983Z,4.53
2017-10-25T19:31:27.439Z,5.00
2017-10-25T19:33:54.899Z,6.27
2017-10-25T19:36:22.356Z,6.40
2017-10-25T19:38:49.816Z,5.70
2017-10-25T19:41:17.273Z,4.50
2017-10-25T19:43:44.722Z,5.90
2017-10-25T19:46:12.178Z,3.80
2017-10-25T19:48:39.638Z,3.03
2017-10-25T19:51:07.094Z,3.27
2017-10-25T19:53:34.560Z,3.43
2017-10-25T19:56:02.042Z,3.80
2017-10-25T19:58:29.502Z,3.13
2017-10-25T20:00:56.974Z,4.17
2017-10-25T20:03:25.195Z,4.73
2017-10-25T20:05:52.654Z,4.13
2017-10-25T20:08:20.106Z,4.03
2017-10-25T20:10:47.571Z,4.20
2017-10-25T20:13:15.030Z,4.67
2017-10-25T20:15:42.499Z,5.27
2017-10-25T20:18:09.951Z,4.87
2017-10-25T20:20:37.414Z,4.80
2017-10-25T20:23:04.879Z,4.20
2017-10-25T20:25:32.438Z,4.93
2017-10-25T20:27:59.885Z,5.50
2017-10-25T20:30:27.348Z,6.27
2017-10-25T20:32:54.912Z,5.57
2017-10-25T20:35:22.384Z,4.73
2017-10-25T20:37:49.825Z,5.33
2017-10-25T20:40:17.283Z,4.70
2017-10-25T20:42:44.838Z,6.37
2017-10-25T20:45:12.399Z,6.63
2017-10-25T20:47:39.854Z,6.60
2017-10-25T20:50:07.308Z,6.37
2017-10-25T20:52:34.873Z,6.97
2017-10-25T20:55:02.324Z,6.33
2017-10-25T20:57:29.794Z,5.43
2017-10-25T20:59:57.347Z,6.30
2017-10-25T21:02:24.807Z,4.93
2017-10-25T21:04:52.251Z,5.93
2017-10-25T21:07:19.714Z,6.33
2017-10-25T21:09:47.171Z,4.87
2017-10-25T21:12:14.634Z,5.43
2017-10-25T21:14:42.089Z,6.63
2017-10-25T21:17:09.550Z,8.20
2017-10-25T21:19:37.006Z,8.53
2017-10-25T21:22:04.553Z,9.33
2017-10-25T21:24:32.006Z,6.53
2017-10-25T21:26:59.479Z,7.97
2017-10-25T21:29:26.925Z,6.20
2017-10-25T21:31:54.379Z,8.13
2017-10-25T21:34:21.944Z,7.47
2017-10-25T21:36:49.401Z,9.03
2017-10-25T21:39:16.862Z,8.57
2017-10-25T21:41:44.319Z,7.30
2017-10-25T21:44:11.777Z,8.10
2017-10-25T21:46:39.226Z,8.60
2017-10-25T21:49:06.690Z,8.30
2017-10-25T21:51:34.150Z,7.47
2017-10-25T21:54:01.608Z,7.30
2017-10-25T21:56:29.062Z,7.77
2017-10-25T21:58:58.054Z,6.77
2017-10-25T22:02:34.794Z,8.17
2017-10-25T22:05:02.287Z,7.77
2017-10-25T22:07:29.766Z,8.23
2017-10-25T22:09:57.985Z,7.50
2017-10-25T22:12:25.486Z,7.80
2017-10-25T22:14:52.950Z,8.10
2017-10-25T22:17:20.395Z,7.30
2017-10-25T22:19:47.861Z,8.47
2017-10-25T22:22:15.424Z,7.00
2017-10-25T22:24:42.979Z,8.70
2017-10-25T22:27:10.438Z,8.50
2017-10-25T22:29:37.902Z,9.30
2017-10-25T22:32:06.126Z,9.20
2017-10-25T22:34:33.610Z,9.77
2017-10-25T22:37:01.066Z,8.80
2017-10-25T22:39:28.539Z,8.83
2017-10-25T22:41:56.092Z,9.83
2017-10-25T22:44:23.555Z,9.10
2017-10-25T22:46:51.106Z,7.77
2017-10-25T22:49:20.075Z,9.23
2017-10-25T22:51:47.530Z,8.20
2017-10-25T22:54:14.994Z,8.17
2017-10-25T22:56:42.446Z,8.93
2017-10-25T22:59:09.923Z,8.83
2017-10-25T23:01:37.482Z,7.87
2017-10-25T23:04:04.942Z,8.33
2017-10-25T23:06:32.393Z,8.07
2017-10-25T23:08:59.842Z,7.80
2017-10-25T23:11:27.308Z,7.43
2017-10-25T23:13:54.858Z,6.60
2017-10-25T23:16:22.314Z,6.63
2017-10-25T23:18:49.766Z,7.50
2017-10-25T23:21:17.230Z,6.83
2017-10-25T23:23:44.697Z,8.50
2017-10-25T23:26:12.245Z,7.77
2017-10-25T23:28:39.705Z,7.50
2017-10-25T23:31:07.165Z,7.30
2017-10-25T23:33:34.627Z,6.63
2017-10-25T23:36:02.175Z,6.17
2017-10-25T23:38:29.637Z,7.50
2017-10-25T23:40:57.111Z,6.77
2017-10-25T23:43:25.363Z,7.63
2017-10-25T23:45:52.825Z,7.47
2017-10-25T23:48:20.291Z,7.43
2017-10-25T23:50:47.746Z,7.30
2017-10-25T23:53:15.202Z,7.43
2017-10-25T23:55:42.658Z,7.93
2017-10-25T23:58:10.120Z,6.57
